Time;durP1;ratioP1;P1;durP2;ratioP2;P2;SDS_P1;SDS_P2;PMS_P1;PMS_P2;Temp;Humidity;BMP_temperature;BMP_pressure;BME280_temperature;BME280_humidity;BME280_pressure;Samples;Min_cycle;Max_cycle;Signal;HPM_P1;HPM_P2
2023/03/04 00:00:20;;;;;;;10.90;6.97;;;;;;;;;;5071053;28;20054;-79
2023/03/04 00:02:47;;;;;;;15.23;5.70;;;;;;;;;;5071448;28;20442;-78
2023/03/04 00:05:13;;;;;;;10.60;6.45;;;;;;;;;;5070834;28;20420;-77
2023/03/04 00:07:39;;;;;;;10.55;6.47;;;;;;;;;;5071605;28;20489;-77
2023/03/04 00:10:05;;;;;;;11.35;6.38;;;;;;;;;;5052951;28;20036;-77
2023/03/04 00:12:32;;;;;;;13.57;6.03;;;;;;;;;;5071117;28;20036;-76
2023/03/04 00:14:58;;;;;;;12.70;6.38;;;;;;;;;;5070813;28;20382;-77
2023/03/04 00:17:24;;;;;;;14.52;6.35;;;;;;;;;;5071057;28;20044;-77
2023/03/04 00:19:50;;;;;;;8.70;5.22;;;;;;;;;;5071113;28;20048;-77
2023/03/04 00:22:15;;;;;;;10.00;5.47;;;;;;;;;;5070901;28;20500;-79
2023/03/04 00:24:41;;;;;;;10.00;5.72;;;;;;;;;;5070851;28;20059;-79
2023/03/04 00:27:08;;;;;;;8.15;6.25;;;;;;;;;;5071137;28;20035;-77
2023/03/04 00:29:34;;;;;;;8.88;5.25;;;;;;;;;;5052777;28;20037;-77
2023/03/04 00:32:00;;;;;;;7.03;6.03;;;;;;;;;;5070327;28;20135;-78
2023/03/04 00:34:26;;;;;;;8.07;6.32;;;;;;;;;;5070271;28;20033;-78
2023/03/04 00:36:53;;;;;;;8.48;6.45;;;;;;;;;;5052977;28;20040;-77
2023/03/04 00:39:19;;;;;;;13.38;6.90;;;;;;;;;;5052750;28;20393;-78
2023/03/04 00:41:45;;;;;;;8.13;5.25;;;;;;;;;;5070575;28;20428;-77
2023/03/04 00:44:11;;;;;;;9.82;5.93;;;;;;;;;;5069965;28;20119;-75
2023/03/04 00:46:37;;;;;;;16.45;7.03;;;;;;;;;;5069703;28;20462;-77
2023/03/04 00:49:03;;;;;;;11.32;6.78;;;;;;;;;;5052370;28;20032;-78
2023/03/04 00:51:29;;;;;;;7.55;6.43;;;;;;;;;;5052880;28;20032;-77
2023/03/04 00:53:56;;;;;;;9.60;6.93;;;;;;;;;;5052761;28;20056;-79
2023/03/04 00:56:22;;;;;;;12.27;7.97;;;;;;;;;;5070243;28;20032;-78
2023/03/04 00:58:48;;;;;;;11.60;7.20;;;;;;;;;;5070586;28;20060;-77
2023/03/04 01:01:14;;;;;;;8.68;7.25;;;;;;;;;;5070455;28;20047;-78
2023/03/04 01:03:41;;;;;;;13.13;7.70;;;;;;;;;;5036062;28;20423;-78
2023/03/04 01:06:07;;;;;;;14.90;9.40;;;;;;;;;;5035783;28;20040;-78
2023/03/04 01:08:33;;;;;;;8.18;7.40;;;;;;;;;;5071284;28;20033;-79
2023/03/04 01:10:59;;;;;;;13.10;7.55;;;;;;;;;;5055571;28;20508;-78
2023/03/04 01:13:25;;;;;;;13.45;8.80;;;;;;;;;;5037389;28;20055;-79
2023/03/04 01:15:51;;;;;;;11.88;7.70;;;;;;;;;;5054501;28;20033;-79
2023/03/04 01:18:17;;;;;;;12.30;9.15;;;;;;;;;;5071660;28;20044;-78
2023/03/04 01:20:43;;;;;;;9.93;6.47;;;;;;;;;;5035178;28;20040;-79
2023/03/04 01:23:09;;;;;;;18.25;10.88;;;;;;;;;;5069304;28;20416;-79
2023/03/04 01:25:35;;;;;;;23.23;11.45;;;;;;;;;;5069300;28;20048;-79
2023/03/04 01:28:01;;;;;;;15.02;9.82;;;;;;;;;;5069623;28;20044;-78
2023/03/04 01:30:27;;;;;;;17.95;10.63;;;;;;;;;;5069295;28;20032;-78
2023/03/04 01:32:55;;;;;;;14.63;10.50;;;;;;;;;;5051460;28;20520;-77
2023/03/04 01:35:21;;;;;;;13.60;9.57;;;;;;;;;;5068892;28;20293;-78
2023/03/04 01:37:47;;;;;;;15.60;10.30;;;;;;;;;;5069296;28;20036;-78
2023/03/04 01:40:13;;;;;;;19.20;10.50;;;;;;;;;;5069344;28;20039;-78
2023/03/04 01:42:39;;;;;;;19.58;9.93;;;;;;;;;;5069754;28;20036;-77
2023/03/04 01:45:05;;;;;;;10.63;7.47;;;;;;;;;;5069402;28;20075;-78
2023/03/04 01:47:32;;;;;;;15.32;5.88;;;;;;;;;;5069494;28;20043;-79
2023/03/04 01:49:57;;;;;;;6.68;4.75;;;;;;;;;;5069602;28;20040;-77
2023/03/04 01:52:24;;;;;;;20.42;12.27;;;;;;;;;;5051404;28;20037;-78
2023/03/04 01:54:51;;;;;;;6.18;5.63;;;;;;;;;;5051400;28;20037;-79
2023/03/04 01:57:18;;;;;;;34.28;5.07;;;;;;;;;;5051473;28;20028;-78
2023/03/04 01:59:44;;;;;;;18.60;8.90;;;;;;;;;;5069074;28;20032;-78
2023/03/04 02:02:10;;;;;;;23.63;10.25;;;;;;;;;;5069005;28;20082;-76
2023/03/04 02:04:36;;;;;;;20.60;11.25;;;;;;;;;;5068978;28;20044;-78
2023/03/04 02:07:02;;;;;;;31.67;12.98;;;;;;;;;;5051468;28;20032;-78
2023/03/04 02:09:29;;;;;;;50.53;16.95;;;;;;;;;;5068930;28;20031;-77
2023/03/04 02:11:55;;;;;;;41.83;14.45;;;;;;;;;;5069276;28;20090;-78
2023/03/04 02:14:21;;;;;;;20.27;10.45;;;;;;;;;;5068863;28;20119;-78
2023/03/04 02:16:47;;;;;;;33.67;15.52;;;;;;;;;;5069415;28;20037;-77
2023/03/04 02:19:17;;;;;;;40.17;17.63;;;;;;;;;;5051821;28;20036;-79
2023/03/04 02:21:43;;;;;;;39.20;16.25;;;;;;;;;;5067698;28;20119;-78
2023/03/04 02:24:26;;;;;;;36.35;16.08;;;;;;;;;;5047915;28;20040;-80
2023/03/04 02:26:52;;;;;;;37.45;13.93;;;;;;;;;;5050800;28;20465;-78
2023/03/04 02:29:18;;;;;;;54.30;19.85;;;;;;;;;;5048417;28;20161;-77
2023/03/04 02:31:48;;;;;;;37.55;16.17;;;;;;;;;;5051082;28;20484;-79
2023/03/04 02:34:22;;;;;;;66.75;23.20;;;;;;;;;;5032102;28;20582;-80
2023/03/04 02:36:49;;;;;;;52.63;18.85;;;;;;;;;;5032531;28;20033;-80
2023/03/04 02:39:18;;;;;;;40.90;14.18;;;;;;;;;;5037121;28;20082;-78
2023/03/04 02:41:44;;;;;;;60.20;21.20;;;;;;;;;;5061919;28;20044;-79
2023/03/04 02:44:14;;;;;;;72.30;22.23;;;;;;;;;;5050320;28;20493;-78
2023/03/04 02:46:40;;;;;;;41.97;16.42;;;;;;;;;;5047675;28;20505;-79
2023/03/04 02:49:07;;;;;;;35.33;13.95;;;;;;;;;;5029994;28;20062;-81
2023/03/04 02:51:33;;;;;;;22.88;11.45;;;;;;;;;;5031039;28;20036;-78
2023/03/04 02:53:59;;;;;;;17.13;9.52;;;;;;;;;;5049991;28;20040;-79
2023/03/04 02:56:25;;;;;;;14.88;9.25;;;;;;;;;;5068753;28;20043;-79
2023/03/04 02:58:51;;;;;;;11.25;7.00;;;;;;;;;;5051473;28;20047;-78
2023/03/04 03:01:17;;;;;;;14.00;9.25;;;;;;;;;;5068829;28;20025;-79
2023/03/04 03:03:44;;;;;;;15.77;9.60;;;;;;;;;;5068537;28;20064;-78
2023/03/04 03:06:10;;;;;;;13.63;8.75;;;;;;;;;;5050800;28;20072;-78
2023/03/04 03:08:36;;;;;;;21.13;10.07;;;;;;;;;;5070213;28;20094;-77
2023/03/04 03:11:02;;;;;;;20.60;11.27;;;;;;;;;;5054788;28;20035;-79
2023/03/04 03:13:30;;;;;;;18.63;10.50;;;;;;;;;;5054225;28;20115;-79
2023/03/04 03:15:59;;;;;;;21.77;13.15;;;;;;;;;;5054218;28;20043;-79
2023/03/04 03:18:25;;;;;;;23.90;13.73;;;;;;;;;;5054166;28;20040;-79
2023/03/04 03:20:51;;;;;;;19.73;12.20;;;;;;;;;;5037628;28;20032;-79
2023/03/04 03:23:19;;;;;;;15.18;10.30;;;;;;;;;;5054015;28;20036;-78
2023/03/04 03:25:45;;;;;;;15.63;9.88;;;;;;;;;;5054377;28;20067;-79
2023/03/04 03:28:11;;;;;;;20.35;10.90;;;;;;;;;;5072238;28;20036;-79
2023/03/04 03:30:37;;;;;;;8.88;6.63;;;;;;;;;;5054765;28;20105;-80
2023/03/04 03:33:05;;;;;;;18.58;10.65;;;;;;;;;;5054246;28;20048;-80
2023/03/04 03:35:32;;;;;;;23.77;11.85;;;;;;;;;;5054851;28;20085;-79
2023/03/04 03:37:58;;;;;;;25.98;13.50;;;;;;;;;;5072031;28;20076;-79
2023/03/04 03:40:24;;;;;;;26.75;14.07;;;;;;;;;;5071725;28;20445;-79
2023/03/04 03:42:50;;;;;;;21.98;11.82;;;;;;;;;;5054579;28;20036;-79
2023/03/04 03:45:16;;;;;;;15.98;10.50;;;;;;;;;;5071892;28;20060;-79
2023/03/04 03:47:42;;;;;;;27.80;12.70;;;;;;;;;;5053711;28;20029;-79
2023/03/04 03:50:08;;;;;;;11.55;8.07;;;;;;;;;;5071673;28;20658;-79
2023/03/04 03:52:38;;;;;;;9.73;8.00;;;;;;;;;;5071248;28;20024;-79
2023/03/04 03:55:04;;;;;;;12.13;8.25;;;;;;;;;;5071401;28;20040;-79
2023/03/04 03:57:30;;;;;;;11.75;7.95;;;;;;;;;;5071311;28;20035;-79
2023/03/04 03:59:56;;;;;;;21.83;14.82;;;;;;;;;;5053893;28;20090;-80
2023/03/04 04:02:22;;;;;;;30.50;17.92;;;;;;;;;;5053435;28;20029;-79
2023/03/04 04:04:48;;;;;;;14.65;9.77;;;;;;;;;;5071546;28;20127;-78
2023/03/04 04:07:14;;;;;;;15.82;10.93;;;;;;;;;;5071698;28;20619;-78
2023/03/04 04:09:40;;;;;;;8.98;7.28;;;;;;;;;;5071331;28;20029;-79
2023/03/04 04:12:07;;;;;;;23.15;14.02;;;;;;;;;;5071435;28;20036;-80
2023/03/04 04:14:33;;;;;;;8.50;5.47;;;;;;;;;;5071035;28;20037;-78
2023/03/04 04:16:59;;;;;;;13.63;10.20;;;;;;;;;;5071384;28;20028;-79
2023/03/04 04:19:25;;;;;;;16.20;9.45;;;;;;;;;;5070463;28;20115;-79
2023/03/04 04:21:51;;;;;;;10.77;7.72;;;;;;;;;;5052510;28;20120;-78
2023/03/04 04:24:17;;;;;;;16.38;10.68;;;;;;;;;;5071227;28;20142;-79
2023/03/04 04:26:43;;;;;;;17.02;7.72;;;;;;;;;;5071482;28;20097;-80
2023/03/04 04:29:09;;;;;;;12.10;10.77;;;;;;;;;;5070942;28;20120;-79
2023/03/04 04:31:35;;;;;;;8.80;7.90;;;;;;;;;;5036677;28;20506;-80
2023/03/04 04:34:02;;;;;;;9.57;8.55;;;;;;;;;;5074748;28;20659;-79
2023/03/04 04:36:28;;;;;;;6.18;5.65;;;;;;;;;;5072795;28;20459;-80
2023/03/04 04:38:54;;;;;;;4.78;4.43;;;;;;;;;;5073204;28;20033;-79
2023/03/04 04:41:21;;;;;;;8.60;6.28;;;;;;;;;;5072355;28;20044;-79
2023/03/04 04:43:47;;;;;;;6.40;5.80;;;;;;;;;;5052997;28;20064;-80
2023/03/04 04:46:13;;;;;;;5.65;5.22;;;;;;;;;;5070688;28;20075;-78
2023/03/04 04:48:40;;;;;;;7.75;4.85;;;;;;;;;;5053001;28;20036;-80
2023/03/04 04:51:06;;;;;;;7.28;6.63;;;;;;;;;;5071404;28;20082;-80
2023/03/04 04:53:32;;;;;;;7.28;6.57;;;;;;;;;;5070942;28;20036;-81
2023/03/04 04:55:58;;;;;;;7.75;6.28;;;;;;;;;;5070461;28;20029;-79
2023/03/04 04:58:24;;;;;;;6.78;6.18;;;;;;;;;;5070412;28;20060;-79
2023/03/04 05:00:50;;;;;;;9.25;8.32;;;;;;;;;;5070667;28;20075;-79
2023/03/04 05:03:16;;;;;;;9.15;7.05;;;;;;;;;;5070213;28;20052;-79
2023/03/04 05:05:42;;;;;;;9.80;8.13;;;;;;;;;;5070161;28;20040;-80
2023/03/04 05:08:08;;;;;;;9.98;9.02;;;;;;;;;;5070086;28;20039;-79
2023/03/04 05:10:34;;;;;;;6.10;5.15;;;;;;;;;;5035364;28;20040;-79
2023/03/04 05:13:00;;;;;;;9.35;6.43;;;;;;;;;;5070355;28;20040;-79
2023/03/04 05:15:26;;;;;;;5.97;5.47;;;;;;;;;;5069919;28;20040;-80
2023/03/04 05:17:52;;;;;;;6.80;5.15;;;;;;;;;;5070374;28;20119;-79
2023/03/04 05:20:18;;;;;;;8.88;6.68;;;;;;;;;;5069788;28;20464;-79
2023/03/04 05:22:44;;;;;;;10.02;9.13;;;;;;;;;;5052374;28;20523;-80
2023/03/04 05:25:10;;;;;;;5.25;4.85;;;;;;;;;;5051985;28;20100;-79
2023/03/04 05:27:36;;;;;;;6.50;5.70;;;;;;;;;;5069599;28;20535;-80
2023/03/04 05:30:02;;;;;;;8.10;7.38;;;;;;;;;;5070130;28;20036;-79
2023/03/04 05:32:29;;;;;;;6.82;6.30;;;;;;;;;;5069526;28;20554;-79
2023/03/04 05:34:55;;;;;;;6.95;6.10;;;;;;;;;;5069891;28;20044;-79
2023/03/04 05:37:21;;;;;;;4.18;3.83;;;;;;;;;;5070244;28;20028;-79
2023/03/04 05:39:47;;;;;;;7.55;6.85;;;;;;;;;;5072196;28;20407;-84
2023/03/04 05:42:13;;;;;;;4.43;4.03;;;;;;;;;;5074728;28;20092;-83
2023/03/04 05:44:40;;;;;;;9.10;6.63;;;;;;;;;;5073252;28;20047;-83
2023/03/04 05:47:06;;;;;;;7.88;5.75;;;;;;;;;;5086817;28;20060;-83
2023/03/04 05:49:32;;;;;;;5.97;5.38;;;;;;;;;;5084432;28;20032;-81
2023/03/04 05:51:58;;;;;;;6.60;5.90;;;;;;;;;;5043819;28;20036;-81
2023/03/04 05:54:25;;;;;;;5.70;5.15;;;;;;;;;;5066119;28;20389;-79
2023/03/04 05:56:51;;;;;;;8.63;7.53;;;;;;;;;;5059392;28;20112;-80
2023/03/04 05:59:19;;;;;;;5.68;5.18;;;;;;;;;;5075213;28;20519;-82
2023/03/04 06:01:45;;;;;;;6.65;5.93;;;;;;;;;;5080619;28;20036;-82
2023/03/04 06:04:11;;;;;;;5.10;4.70;;;;;;;;;;5062334;28;20048;-83
2023/03/04 06:06:37;;;;;;;5.10;4.70;;;;;;;;;;5081251;28;20035;-82
2023/03/04 06:09:04;;;;;;;6.95;5.50;;;;;;;;;;5057520;28;20119;-80
2023/03/04 06:11:30;;;;;;;4.00;3.72;;;;;;;;;;5069152;28;20041;-80
2023/03/04 06:13:56;;;;;;;5.05;4.68;;;;;;;;;;5068556;28;20033;-77
2023/03/04 06:16:22;;;;;;;5.85;5.25;;;;;;;;;;5058200;28;20120;-77
2023/03/04 06:18:48;;;;;;;7.43;4.68;;;;;;;;;;5068783;28;20048;-77
2023/03/04 06:21:14;;;;;;;4.22;3.83;;;;;;;;;;5050467;28;20036;-77
2023/03/04 06:23:40;;;;;;;5.00;3.90;;;;;;;;;;5074602;28;20041;-82
2023/03/04 06:26:08;;;;;;;3.78;3.47;;;;;;;;;;5077337;28;20041;-83
2023/03/04 06:28:35;;;;;;;5.60;5.20;;;;;;;;;;5052999;28;20040;-81
2023/03/04 06:31:00;;;;;;;3.75;3.45;;;;;;;;;;5074933;28;20033;-80
2023/03/04 06:33:26;;;;;;;6.20;5.70;;;;;;;;;;5056659;28;20036;-81
2023/03/04 06:35:53;;;;;;;6.93;5.38;;;;;;;;;;5050970;28;20512;-79
2023/03/04 06:38:19;;;;;;;6.22;5.00;;;;;;;;;;5069160;28;20502;-81
2023/03/04 06:40:45;;;;;;;7.40;5.53;;;;;;;;;;5071415;28;20550;-81
2023/03/04 06:43:11;;;;;;;6.25;4.75;;;;;;;;;;5069182;28;20071;-80
2023/03/04 06:45:38;;;;;;;6.20;5.10;;;;;;;;;;5073723;28;20055;-81
2023/03/04 06:48:04;;;;;;;4.45;4.05;;;;;;;;;;5056584;28;20401;-81
2023/03/04 06:50:29;;;;;;;7.53;4.78;;;;;;;;;;5066620;28;20055;-81
2023/03/04 06:52:56;;;;;;;3.60;3.30;;;;;;;;;;5048670;28;20086;-80
2023/03/04 06:55:22;;;;;;;5.55;5.15;;;;;;;;;;5073979;28;20044;-81
2023/03/04 06:57:48;;;;;;;4.60;4.20;;;;;;;;;;5076420;28;20032;-82
2023/03/04 07:00:14;;;;;;;4.38;3.97;;;;;;;;;;5078175;28;20046;-80
2023/03/04 07:02:40;;;;;;;4.10;3.70;;;;;;;;;;5060712;28;20412;-79
2023/03/04 07:05:06;;;;;;;5.25;4.60;;;;;;;;;;5077746;28;20056;-80
2023/03/04 07:07:32;;;;;;;5.47;4.53;;;;;;;;;;5062813;28;20040;-80
2023/03/04 07:09:58;;;;;;;4.97;3.95;;;;;;;;;;5061722;28;20036;-80
2023/03/04 07:12:24;;;;;;;4.13;3.83;;;;;;;;;;5081548;28;20044;-80
2023/03/04 07:14:50;;;;;;;3.72;3.42;;;;;;;;;;5085393;28;20688;-80
2023/03/04 07:17:16;;;;;;;4.38;4.00;;;;;;;;;;5071502;28;20044;-80
2023/03/04 07:19:43;;;;;;;5.75;4.18;;;;;;;;;;5073458;28;20075;-80
2023/03/04 07:22:09;;;;;;;4.28;3.88;;;;;;;;;;5071801;28;20543;-81
2023/03/04 07:24:35;;;;;;;4.53;4.10;;;;;;;;;;5088292;28;20041;-82
2023/03/04 07:27:01;;;;;;;3.83;3.53;;;;;;;;;;5085916;28;20047;-81
2023/03/04 07:29:28;;;;;;;4.50;4.10;;;;;;;;;;5079903;28;20455;-82
2023/03/04 07:31:54;;;;;;;5.45;3.90;;;;;;;;;;5082034;28;20123;-80
2023/03/04 07:34:20;;;;;;;4.45;3.88;;;;;;;;;;5080920;28;20036;-82
2023/03/04 07:36:46;;;;;;;4.05;3.13;;;;;;;;;;5061937;28;20032;-83
2023/03/04 07:39:12;;;;;;;3.30;3.10;;;;;;;;;;5062230;28;20035;-83
2023/03/04 07:41:38;;;;;;;4.32;3.92;;;;;;;;;;5080329;28;20116;-81
2023/03/04 07:44:04;;;;;;;4.45;4.05;;;;;;;;;;5082115;28;20522;-84
2023/03/04 07:46:30;;;;;;;3.53;3.22;;;;;;;;;;5065286;28;20052;-82
2023/03/04 07:48:56;;;;;;;3.90;3.60;;;;;;;;;;5062225;28;20040;-82
2023/03/04 07:51:23;;;;;;;3.10;2.90;;;;;;;;;;5079628;28;20124;-82
2023/03/04 07:53:50;;;;;;;3.67;3.38;;;;;;;;;;5064824;28;20064;-81
2023/03/04 07:56:17;;;;;;;4.38;3.13;;;;;;;;;;5058821;28;20082;-82
2023/03/04 07:58:43;;;;;;;4.00;3.55;;;;;;;;;;5058592;28;20041;-82
2023/03/04 08:01:12;;;;;;;4.28;3.88;;;;;;;;;;5064793;28;20504;-82
2023/03/04 08:03:39;;;;;;;4.45;4.05;;;;;;;;;;5046467;28;20041;-81
2023/03/04 08:06:08;;;;;;;4.13;3.72;;;;;;;;;;5044353;28;20052;-82
2023/03/04 08:08:34;;;;;;;4.00;3.55;;;;;;;;;;5063134;28;20037;-81
2023/03/04 08:11:03;;;;;;;3.30;3.10;;;;;;;;;;5044807;28;20064;-82
2023/03/04 08:13:29;;;;;;;3.00;2.80;;;;;;;;;;5062751;28;20044;-82
2023/03/04 08:15:55;;;;;;;6.28;3.70;;;;;;;;;;5062157;28;20044;-82
2023/03/04 08:18:21;;;;;;;3.95;3.33;;;;;;;;;;5062812;28;20131;-82
2023/03/04 08:20:47;;;;;;;5.38;3.15;;;;;;;;;;5063694;28;20590;-84
2023/03/04 08:23:13;;;;;;;4.50;4.10;;;;;;;;;;5063499;28;20060;-81
2023/03/04 08:25:39;;;;;;;4.20;3.47;;;;;;;;;;5078390;28;20094;-81
2023/03/04 08:28:06;;;;;;;5.80;3.75;;;;;;;;;;5041049;28;20128;-82
2023/03/04 08:30:31;;;;;;;5.50;4.78;;;;;;;;;;5078586;28;20040;-81
2023/03/04 08:32:59;;;;;;;5.22;4.75;;;;;;;;;;5056687;28;20915;-80
2023/03/04 08:35:25;;;;;;;4.30;3.88;;;;;;;;;;5074629;28;20056;-82
2023/03/04 08:37:51;;;;;;;3.55;3.20;;;;;;;;;;5075696;28;20035;-81
2023/03/04 08:40:17;;;;;;;6.50;3.47;;;;;;;;;;5074702;28;20119;-80
2023/03/04 08:42:43;;;;;;;4.10;3.25;;;;;;;;;;5074557;28;20043;-81
2023/03/04 08:45:09;;;;;;;3.47;3.17;;;;;;;;;;5062800;28;20041;-76
2023/03/04 08:47:36;;;;;;;6.03;2.88;;;;;;;;;;5065485;28;20039;-79
2023/03/04 08:50:02;;;;;;;3.90;3.05;;;;;;;;;;5070400;28;20062;-79
2023/03/04 08:52:29;;;;;;;4.35;3.30;;;;;;;;;;5068440;28;20028;-78
2023/03/04 08:54:55;;;;;;;5.03;3.70;;;;;;;;;;5069750;28;20036;-77
2023/03/04 08:57:21;;;;;;;3.17;2.85;;;;;;;;;;5062555;28;20048;-77
2023/03/04 08:59:47;;;;;;;3.85;3.40;;;;;;;;;;5067311;28;20036;-77
2023/03/04 09:02:13;;;;;;;3.42;3.22;;;;;;;;;;5050444;28;20036;-78
2023/03/04 09:04:39;;;;;;;2.97;2.67;;;;;;;;;;5064860;28;20047;-76
2023/03/04 09:07:05;;;;;;;2.78;2.58;;;;;;;;;;5065047;28;20170;-77
2023/03/04 09:09:30;;;;;;;3.50;3.30;;;;;;;;;;5050694;28;20078;-80
2023/03/04 09:11:57;;;;;;;6.72;5.57;;;;;;;;;;5074300;28;20033;-80
2023/03/04 09:14:22;;;;;;;5.90;5.40;;;;;;;;;;5054946;28;20036;-79
2023/03/04 09:16:49;;;;;;;3.95;3.70;;;;;;;;;;5070008;28;20532;-77
2023/03/04 09:19:15;;;;;;;3.53;3.08;;;;;;;;;;5069463;28;20106;-78
2023/03/04 09:21:41;;;;;;;3.13;2.92;;;;;;;;;;5068307;28;20041;-77
2023/03/04 09:24:07;;;;;;;3.45;3.15;;;;;;;;;;5066077;28;20408;-76
2023/03/04 09:26:33;;;;;;;4.78;2.58;;;;;;;;;;5066733;28;20048;-80
2023/03/04 09:29:00;;;;;;;3.08;2.88;;;;;;;;;;5069330;28;20059;-78
2023/03/04 09:31:26;;;;;;;2.90;2.72;;;;;;;;;;5065788;28;20056;-80
2023/03/04 09:33:52;;;;;;;2.97;2.78;;;;;;;;;;5067804;28;20024;-79
2023/03/04 09:36:18;;;;;;;2.63;2.38;;;;;;;;;;5068798;28;20036;-75
2023/03/04 09:38:44;;;;;;;2.22;2.00;;;;;;;;;;5045874;28;20059;-78
2023/03/04 09:41:17;;;;;;;2.72;2.45;;;;;;;;;;5049404;28;20121;-74
2023/03/04 09:43:43;;;;;;;3.55;2.70;;;;;;;;;;5067372;28;20033;-80
2023/03/04 09:46:14;;;;;;;2.42;2.33;;;;;;;;;;5033518;28;20121;-76
2023/03/04 09:48:44;;;;;;;2.97;2.78;;;;;;;;;;5048657;28;20028;-77
2023/03/04 09:51:10;;;;;;;2.33;2.22;;;;;;;;;;5047541;28;20075;-78
2023/03/04 09:53:44;;;;;;;2.95;2.70;;;;;;;;;;5061970;28;20055;-79
2023/03/04 09:56:10;;;;;;;2.20;2.10;;;;;;;;;;5046795;28;20038;-80
2023/03/04 09:58:43;;;;;;;2.42;2.22;;;;;;;;;;5065489;28;20446;-79
2023/03/04 10:01:22;;;;;;;2.50;2.40;;;;;;;;;;5065066;28;20029;-79
2023/03/04 10:03:50;;;;;;;2.10;2.00;;;;;;;;;;5019988;28;20039;-81
2023/03/04 10:06:17;;;;;;;2.20;2.10;;;;;;;;;;5045176;28;20044;-80
2023/03/04 10:08:45;;;;;;;2.92;2.72;;;;;;;;;;5047449;28;20035;-80
2023/03/04 10:11:31;;;;;;;2.35;2.25;;;;;;;;;;5048196;28;20047;-76
2023/03/04 10:14:00;;;;;;;1.80;1.75;;;;;;;;;;5062169;28;20041;-77
2023/03/04 10:16:28;;;;;;;2.33;2.08;;;;;;;;;;5047881;28;20043;-76
2023/03/04 10:19:00;;;;;;;2.38;2.08;;;;;;;;;;5061570;28;20094;-76
2023/03/04 10:21:31;;;;;;;3.80;3.28;;;;;;;;;;5033044;28;20037;-76
2023/03/04 10:23:57;;;;;;;2.47;2.33;;;;;;;;;;5053742;28;20032;-75
2023/03/04 10:26:24;;;;;;;2.83;2.33;;;;;;;;;;5054671;28;20298;-77
2023/03/04 10:28:50;;;;;;;2.15;2.05;;;;;;;;;;5054724;28;20497;-76
2023/03/04 10:31:21;;;;;;;2.58;2.30;;;;;;;;;;5071115;28;20112;-76
2023/03/04 10:33:47;;;;;;;2.30;2.20;;;;;;;;;;5037368;28;20044;-76
2023/03/04 10:36:23;;;;;;;2.67;2.47;;;;;;;;;;5072153;28;20532;-77
2023/03/04 10:38:52;;;;;;;2.30;2.13;;;;;;;;;;5053963;28;20050;-77
2023/03/04 10:41:23;;;;;;;2.05;1.95;;;;;;;;;;5053977;28;20138;-77
2023/03/04 10:43:49;;;;;;;;;;;;;;;;;;5038181;28;20082;-78
2023/03/04 10:46:15;;;;;;;1.95;1.95;;;;;;;;;;5072270;28;19924;-78
2023/03/04 10:48:42;;;;;;;2.03;1.92;;;;;;;;;;5072106;28;20024;-79
2023/03/04 10:51:15;;;;;;;4.85;2.65;;;;;;;;;;5072733;28;20058;-82
2023/03/04 10:53:41;;;;;;;3.00;2.80;;;;;;;;;;5054795;28;20060;-81
2023/03/04 10:56:45;;;;;;;2.80;2.60;;;;;;;;;;5054652;28;20480;-78
2023/03/04 10:59:24;;;;;;;2.92;2.70;;;;;;;;;;4986986;28;20510;-80
2023/03/04 11:01:52;;;;;;;3.30;2.30;;;;;;;;;;5044844;28;20033;-80
2023/03/04 11:04:18;;;;;;;3.08;2.85;;;;;;;;;;5050137;28;20037;-79
2023/03/04 11:06:44;;;;;;;5.20;3.15;;;;;;;;;;5071562;28;20036;-79
2023/03/04 11:09:38;;;;;;;2.50;2.40;;;;;;;;;;5071851;28;20106;-79
2023/03/04 11:12:11;;;;;;;2.47;2.33;;;;;;;;;;5068929;28;20060;-81
2023/03/04 11:14:43;;;;;;;3.25;2.55;;;;;;;;;;5078698;28;20032;-80
2023/03/04 11:17:18;;;;;;;2.33;2.22;;;;;;;;;;5074905;28;20036;-82
2023/03/04 11:19:45;;;;;;;3.22;2.97;;;;;;;;;;5077292;28;20028;-82
2023/03/04 11:22:12;;;;;;;3.05;2.85;;;;;;;;;;5072686;28;20037;-78
2023/03/04 11:24:38;;;;;;;2.80;2.60;;;;;;;;;;5053114;28;20094;-79
2023/03/04 11:27:07;;;;;;;2.83;2.63;;;;;;;;;;5070623;28;20060;-80
2023/03/04 11:29:33;;;;;;;2.97;2.80;;;;;;;;;;5036030;28;20501;-79
2023/03/04 11:31:59;;;;;;;3.22;2.92;;;;;;;;;;5070159;28;20059;-80
2023/03/04 11:34:31;;;;;;;3.17;2.95;;;;;;;;;;5052537;28;20031;-78
2023/03/04 11:36:58;;;;;;;2.47;2.38;;;;;;;;;;5053536;28;20126;-80
2023/03/04 11:39:38;;;;;;;2.90;2.70;;;;;;;;;;5053011;28;20028;-80
2023/03/04 11:42:16;;;;;;;2.63;2.45;;;;;;;;;;5052386;28;20025;-79
2023/03/04 11:44:42;;;;;;;3.22;2.88;;;;;;;;;;5051510;28;20649;-79
2023/03/04 11:47:14;;;;;;;3.00;2.65;;;;;;;;;;5070091;28;20033;-80
2023/03/04 11:49:46;;;;;;;3.22;2.53;;;;;;;;;;5069224;28;20028;-78
2023/03/04 11:52:21;;;;;;;3.78;3.47;;;;;;;;;;5052545;28;20040;-80
2023/03/04 11:55:04;;;;;;;3.60;3.22;;;;;;;;;;5052151;28;20123;-80
2023/03/04 11:57:37;;;;;;;4.05;3.70;;;;;;;;;;5072480;28;20101;-80
2023/03/04 12:00:15;;;;;;;4.43;4.13;;;;;;;;;;5057802;28;20044;-82
2023/03/04 12:02:51;;;;;;;3.63;3.42;;;;;;;;;;5058937;28;20032;-81
2023/03/04 12:05:29;;;;;;;5.50;3.55;;;;;;;;;;5057809;28;20055;-81
2023/03/04 12:08:02;;;;;;;3.35;3.05;;;;;;;;;;5075843;28;20072;-80
2023/03/04 12:10:35;;;;;;;3.47;3.25;;;;;;;;;;5074301;28;20039;-79
2023/03/04 12:13:10;;;;;;;3.90;3.33;;;;;;;;;;5074359;28;20067;-79
2023/03/04 12:15:39;;;;;;;2.75;2.58;;;;;;;;;;5053007;28;20058;-79
2023/03/04 12:18:11;;;;;;;7.50;5.20;;;;;;;;;;5069960;28;20040;-79
2023/03/04 12:20:43;;;;;;;3.30;3.00;;;;;;;;;;5072477;28;20063;-78
2023/03/04 12:23:19;;;;;;;4.80;4.35;;;;;;;;;;5037934;28;20060;-75
2023/03/04 12:25:50;;;;;;;4.20;3.90;;;;;;;;;;5073499;28;20052;-78
2023/03/04 12:28:16;;;;;;;;;;;;;;;;;;5073769;28;20040;-81
2023/03/04 12:30:42;;;;;;;4.35;3.95;;;;;;;;;;5054266;28;19912;-79
2023/03/04 12:33:08;;;;;;;4.15;3.85;;;;;;;;;;5062377;28;20060;-78
2023/03/04 12:35:41;;;;;;;3.42;3.20;;;;;;;;;;5064581;28;20102;-79
2023/03/04 12:38:22;;;;;;;3.45;3.15;;;;;;;;;;5047731;28;20035;-78
2023/03/04 12:40:52;;;;;;;3.55;3.33;;;;;;;;;;5062488;28;20029;-78
2023/03/04 12:43:35;;;;;;;2.65;2.45;;;;;;;;;;5043623;28;20156;-79
2023/03/04 12:46:01;;;;;;;2.63;2.42;;;;;;;;;;5064600;28;20131;-81
2023/03/04 12:48:27;;;;;;;2.30;2.20;;;;;;;;;;5047798;28;20053;-81
2023/03/04 12:51:13;;;;;;;2.38;2.20;;;;;;;;;;5073741;28;20135;-81
2023/03/04 12:53:51;;;;;;;3.17;2.97;;;;;;;;;;5077873;28;20024;-82
2023/03/04 12:56:28;;;;;;;2.92;2.72;;;;;;;;;;5067519;28;20028;-81
2023/03/04 12:58:54;;;;;;;2.40;2.30;;;;;;;;;;5086363;28;20013;-81
2023/03/04 13:01:28;;;;;;;2.85;2.65;;;;;;;;;;5069388;28;20036;-80
2023/03/04 13:03:57;;;;;;;2.10;1.90;;;;;;;;;;5058010;28;20029;-81
2023/03/04 13:06:39;;;;;;;2.78;2.58;;;;;;;;;;5091074;28;20096;-81
2023/03/04 13:09:25;;;;;;;2.65;2.45;;;;;;;;;;5068934;28;20032;-82
2023/03/04 13:11:52;;;;;;;2.78;2.58;;;;;;;;;;5082050;28;20048;-82
2023/03/04 13:14:25;;;;;;;2.30;2.20;;;;;;;;;;5080165;28;20036;-80
2023/03/04 13:16:53;;;;;;;3.67;3.40;;;;;;;;;;5053036;28;20036;-80
2023/03/04 13:19:39;;;;;;;4.05;3.00;;;;;;;;;;5061116;28;20036;-82
2023/03/04 13:22:24;;;;;;;3.28;3.05;;;;;;;;;;5043358;28;20059;-81
2023/03/04 13:24:50;;;;;;;2.80;2.60;;;;;;;;;;5075913;28;20052;-81
2023/03/04 13:27:35;;;;;;;2.97;2.78;;;;;;;;;;5077228;28;20048;-81
2023/03/04 13:30:01;;;;;;;2.25;2.05;;;;;;;;;;5075743;28;20028;-83
2023/03/04 13:32:37;;;;;;;2.80;2.70;;;;;;;;;;5077673;28;20083;-81
2023/03/04 13:35:23;;;;;;;2.58;2.47;;;;;;;;;;5062141;28;20059;-81
2023/03/04 13:37:56;;;;;;;2.70;2.60;;;;;;;;;;5076069;28;20116;-80
2023/03/04 13:40:26;;;;;;;3.97;3.67;;;;;;;;;;5047028;28;20086;-80
2023/03/04 13:42:52;;;;;;;2.88;2.53;;;;;;;;;;5073409;28;20084;-82
2023/03/04 13:45:30;;;;;;;3.28;2.97;;;;;;;;;;5072201;28;20131;-81
2023/03/04 13:47:57;;;;;;;2.85;2.65;;;;;;;;;;5072484;28;20123;-81
2023/03/04 13:50:28;;;;;;;2.72;2.40;;;;;;;;;;5055988;28;20057;-80
2023/03/04 13:52:57;;;;;;;3.83;3.03;;;;;;;;;;5056445;28;20037;-83
2023/03/04 13:55:39;;;;;;;3.22;3.03;;;;;;;;;;5056908;28;20029;-81
2023/03/04 13:58:12;;;;;;;2.00;1.90;;;;;;;;;;5070256;28;20036;-81
2023/03/04 14:00:43;;;;;;;2.88;2.70;;;;;;;;;;5039320;28;20500;-81
2023/03/04 14:03:13;;;;;;;2.70;2.50;;;;;;;;;;5055023;28;20036;-81
2023/03/04 14:05:40;;;;;;;2.53;2.42;;;;;;;;;;5073010;28;20036;-82
2023/03/04 14:08:16;;;;;;;2.10;2.00;;;;;;;;;;5075768;28;20032;-82
2023/03/04 14:10:42;;;;;;;2.28;2.17;;;;;;;;;;5047641;28;20032;-81
2023/03/04 14:13:09;;;;;;;3.55;3.35;;;;;;;;;;5056117;28;20036;-81
2023/03/04 14:15:35;;;;;;;4.53;3.58;;;;;;;;;;5055252;28;20119;-80
2023/03/04 14:18:02;;;;;;;2.85;2.75;;;;;;;;;;5071604;28;20071;-79
2023/03/04 14:20:32;;;;;;;2.42;2.22;;;;;;;;;;5054742;28;20025;-81
2023/03/04 14:22:58;;;;;;;4.80;4.30;;;;;;;;;;5036924;28;20036;-81
2023/03/04 14:25:27;;;;;;;3.83;3.50;;;;;;;;;;5068770;28;20125;-81
2023/03/04 14:28:02;;;;;;;2.90;2.70;;;;;;;;;;5066983;28;20408;-80
2023/03/04 14:30:28;;;;;;;4.10;3.80;;;;;;;;;;5069636;28;20036;-80
2023/03/04 14:32:57;;;;;;;4.28;3.97;;;;;;;;;;5069831;28;20055;-80
2023/03/04 14:35:23;;;;;;;5.43;4.95;;;;;;;;;;5070472;28;20037;-79
2023/03/04 14:37:58;;;;;;;2.58;2.47;;;;;;;;;;5068833;28;20079;-81
2023/03/04 14:40:34;;;;;;;4.55;4.25;;;;;;;;;;5051082;28;20040;-80
2023/03/04 14:43:08;;;;;;;3.05;2.75;;;;;;;;;;5050371;28;20592;-79